sensor_id;sensor_type;location;lat;lon;timestamp;pressure;altitude;pressure_sealevel;temperature;humidity
16525;BME280;8375;33.594;-117.718;2023-04-15T00:02:15;100189.88;;;16.54;55.03
16525;BME280;8375;33.594;-117.718;2023-04-15T00:04:45;100195.72;;;16.40;56.55
16525;BME280;8375;33.594;-117.718;2023-04-15T00:07:14;100189.78;;;16.30;56.27
16525;BME280;8375;33.594;-117.718;2023-04-15T00:09:43;100189.47;;;16.33;57.04
16525;BME280;8375;33.594;-117.718;2023-04-15T00:12:12;100192.56;;;16.36;57.93
16525;BME280;8375;33.594;-117.718;2023-04-15T00:14:40;100187.66;;;16.33;56.60
16525;BME280;8375;33.594;-117.718;2023-04-15T00:17:12;100190.69;;;16.20;57.66
16525;BME280;8375;33.594;-117.718;2023-04-15T00:19:40;100190.19;;;16.17;58.64
16525;BME280;8375;33.594;-117.718;2023-04-15T00:22:10;100179.34;;;16.11;59.54
16525;BME280;8375;33.594;-117.718;2023-04-15T00:24:38;100179.50;;;16.10;61.15
16525;BME280;8375;33.594;-117.718;2023-04-15T00:27:08;100182.13;;;16.10;61.36
16525;BME280;8375;33.594;-117.718;2023-04-15T00:29:37;100185.38;;;16.04;61.05
16525;BME280;8375;33.594;-117.718;2023-04-15T00:32:06;100178.44;;;15.94;61.36
16525;BME280;8375;33.594;-117.718;2023-04-15T00:34:36;100177.91;;;15.91;62.17
16525;BME280;8375;33.594;-117.718;2023-04-15T00:37:05;100182.34;;;15.90;62.67
16525;BME280;8375;33.594;-117.718;2023-04-15T00:39:33;100181.63;;;15.88;62.64
16525;BME280;8375;33.594;-117.718;2023-04-15T00:42:02;100179.03;;;15.88;63.70
16525;BME280;8375;33.594;-117.718;2023-04-15T00:44:31;100186.47;;;15.83;62.73
16525;BME280;8375;33.594;-117.718;2023-04-15T00:47:00;100180.06;;;15.77;62.75
16525;BME280;8375;33.594;-117.718;2023-04-15T00:49:29;100182.16;;;15.74;63.22
16525;BME280;8375;33.594;-117.718;2023-04-15T00:52:00;100177.47;;;15.77;63.01
16525;BME280;8375;33.594;-117.718;2023-04-15T00:54:28;100172.22;;;15.77;62.92
16525;BME280;8375;33.594;-117.718;2023-04-15T00:56:57;100171.69;;;15.74;60.83
16525;BME280;8375;33.594;-117.718;2023-04-15T00:59:26;100174.47;;;15.72;61.31
16525;BME280;8375;33.594;-117.718;2023-04-15T01:01:55;100172.47;;;15.66;60.21
16525;BME280;8375;33.594;-117.718;2023-04-15T01:04:24;100170.97;;;15.63;60.62
16525;BME280;8375;33.594;-117.718;2023-04-15T01:06:53;100176.06;;;15.47;59.66
16525;BME280;8375;33.594;-117.718;2023-04-15T01:09:23;100171.66;;;15.47;59.50
16525;BME280;8375;33.594;-117.718;2023-04-15T01:11:52;100174.59;;;15.44;59.54
16525;BME280;8375;33.594;-117.718;2023-04-15T01:14:21;100181.16;;;15.30;58.88
16525;BME280;8375;33.594;-117.718;2023-04-15T01:16:51;100172.19;;;15.33;59.50
16525;BME280;8375;33.594;-117.718;2023-04-15T01:19:20;100178.69;;;15.29;59.06
16525;BME280;8375;33.594;-117.718;2023-04-15T01:21:48;100181.16;;;15.30;60.70
16525;BME280;8375;33.594;-117.718;2023-04-15T01:24:18;100175.41;;;15.27;61.47
16525;BME280;8375;33.594;-117.718;2023-04-15T01:26:48;100174.88;;;15.23;61.53
16525;BME280;8375;33.594;-117.718;2023-04-15T01:29:17;100169.94;;;15.20;61.99
16525;BME280;8375;33.594;-117.718;2023-04-15T01:31:50;100175.34;;;15.18;62.11
16525;BME280;8375;33.594;-117.718;2023-04-15T01:34:19;100173.53;;;15.19;62.02
16525;BME280;8375;33.594;-117.718;2023-04-15T01:36:48;100172.72;;;15.18;63.25
16525;BME280;8375;33.594;-117.718;2023-04-15T01:39:16;100175.75;;;15.14;63.39
16525;BME280;8375;33.594;-117.718;2023-04-15T01:41:45;100182.94;;;15.11;61.96
16525;BME280;8375;33.594;-117.718;2023-04-15T01:44:15;100182.63;;;15.15;62.23
16525;BME280;8375;33.594;-117.718;2023-04-15T01:46:44;100188.47;;;15.08;61.74
16525;BME280;8375;33.594;-117.718;2023-04-15T01:49:13;100188.38;;;15.00;62.71
16525;BME280;8375;33.594;-117.718;2023-04-15T01:51:42;100188.66;;;14.97;62.61
16525;BME280;8375;33.594;-117.718;2023-04-15T01:54:11;100184.88;;;14.91;62.47
16525;BME280;8375;33.594;-117.718;2023-04-15T01:56:39;100190.09;;;14.91;62.00
16525;BME280;8375;33.594;-117.718;2023-04-15T01:59:08;100196.56;;;14.87;63.80
16525;BME280;8375;33.594;-117.718;2023-04-15T02:01:38;100202.38;;;14.81;63.10
16525;BME280;8375;33.594;-117.718;2023-04-15T02:04:07;100195.66;;;14.78;62.00
16525;BME280;8375;33.594;-117.718;2023-04-15T02:06:42;100202.97;;;14.75;62.95
16525;BME280;8375;33.594;-117.718;2023-04-15T02:09:10;100199.81;;;14.71;63.00
16525;BME280;8375;33.594;-117.718;2023-04-15T02:11:40;100202.97;;;14.65;63.86
16525;BME280;8375;33.594;-117.718;2023-04-15T02:14:08;100201.31;;;14.64;65.21
16525;BME280;8375;33.594;-117.718;2023-04-15T02:16:39;100194.31;;;14.64;66.69
16525;BME280;8375;33.594;-117.718;2023-04-15T02:19:07;100205.19;;;14.60;66.73
16525;BME280;8375;33.594;-117.718;2023-04-15T02:21:36;100202.88;;;14.57;66.68
16525;BME280;8375;33.594;-117.718;2023-04-15T02:24:05;100213.88;;;14.50;67.72
16525;BME280;8375;33.594;-117.718;2023-04-15T02:26:34;100219.28;;;14.49;67.04
16525;BME280;8375;33.594;-117.718;2023-04-15T02:29:03;100216.09;;;14.45;67.09
16525;BME280;8375;33.594;-117.718;2023-04-15T02:31:31;100223.41;;;14.42;68.19
16525;BME280;8375;33.594;-117.718;2023-04-15T02:34:07;100222.06;;;14.37;67.73
16525;BME280;8375;33.594;-117.718;2023-04-15T02:36:36;100225.25;;;14.31;68.02
16525;BME280;8375;33.594;-117.718;2023-04-15T02:39:06;100220.31;;;14.28;67.91
16525;BME280;8375;33.594;-117.718;2023-04-15T02:41:36;100227.72;;;14.23;68.58
16525;BME280;8375;33.594;-117.718;2023-04-15T02:44:05;100225.13;;;14.23;69.02
16525;BME280;8375;33.594;-117.718;2023-04-15T02:46:35;100227.63;;;14.15;68.27
16525;BME280;8375;33.594;-117.718;2023-04-15T02:49:03;100236.94;;;14.17;68.43
16525;BME280;8375;33.594;-117.718;2023-04-15T02:51:34;100230.75;;;14.18;70.17
16525;BME280;8375;33.594;-117.718;2023-04-15T02:54:02;100239.69;;;14.16;69.01
16525;BME280;8375;33.594;-117.718;2023-04-15T02:56:31;100241.22;;;14.08;68.11
16525;BME280;8375;33.594;-117.718;2023-04-15T02:59:00;100247.41;;;14.07;68.57
16525;BME280;8375;33.594;-117.718;2023-04-15T03:01:28;100250.03;;;13.98;69.11
16525;BME280;8375;33.594;-117.718;2023-04-15T03:03:57;100247.41;;;13.98;69.80
16525;BME280;8375;33.594;-117.718;2023-04-15T03:06:25;100253.47;;;13.98;68.21
16525;BME280;8375;33.594;-117.718;2023-04-15T03:08:56;100251.81;;;13.97;68.67
16525;BME280;8375;33.594;-117.718;2023-04-15T03:11:25;100264.72;;;13.99;69.27
16525;BME280;8375;33.594;-117.718;2023-04-15T03:13:54;100253.31;;;14.00;70.17
16525;BME280;8375;33.594;-117.718;2023-04-15T03:16:23;100268.28;;;13.98;68.60
16525;BME280;8375;33.594;-117.718;2023-04-15T03:18:51;100272.53;;;13.99;69.91
16525;BME280;8375;33.594;-117.718;2023-04-15T03:21:20;100274.19;;;14.00;70.26
16525;BME280;8375;33.594;-117.718;2023-04-15T03:23:49;100279.56;;;13.98;69.15
16525;BME280;8375;33.594;-117.718;2023-04-15T03:26:26;100279.00;;;13.94;68.27
16525;BME280;8375;33.594;-117.718;2023-04-15T03:28:56;100287.25;;;14.00;70.29
16525;BME280;8375;33.594;-117.718;2023-04-15T03:31:24;100285.88;;;13.96;68.31
16525;BME280;8375;33.594;-117.718;2023-04-15T03:33:53;100289.44;;;13.94;67.93
16525;BME280;8375;33.594;-117.718;2023-04-15T03:36:22;100289.16;;;13.98;68.96
16525;BME280;8375;33.594;-117.718;2023-04-15T03:38:50;100291.09;;;13.96;68.12
16525;BME280;8375;33.594;-117.718;2023-04-15T03:41:19;100302.63;;;13.93;68.45
16525;BME280;8375;33.594;-117.718;2023-04-15T03:43:49;100305.38;;;13.91;68.23
16525;BME280;8375;33.594;-117.718;2023-04-15T03:46:18;100306.75;;;13.86;68.01
16525;BME280;8375;33.594;-117.718;2023-04-15T03:48:47;100307.44;;;13.88;70.24
16525;BME280;8375;33.594;-117.718;2023-04-15T03:51:16;100319.66;;;13.87;70.49
16525;BME280;8375;33.594;-117.718;2023-04-15T03:53:44;100318.97;;;13.85;69.42
16525;BME280;8375;33.594;-117.718;2023-04-15T03:56:13;100324.47;;;13.82;70.06
16525;BME280;8375;33.594;-117.718;2023-04-15T03:58:42;100318.56;;;13.80;70.07
16525;BME280;8375;33.594;-117.718;2023-04-15T04:01:12;100327.50;;;13.77;70.72
16525;BME280;8375;33.594;-117.718;2023-04-15T04:03:41;100332.03;;;13.75;70.36
16525;BME280;8375;33.594;-117.718;2023-04-15T04:06:09;100333.38;;;13.70;70.74
16525;BME280;8375;33.594;-117.718;2023-04-15T04:08:38;100341.19;;;13.70;72.45
16525;BME280;8375;33.594;-117.718;2023-04-15T04:11:07;100336.41;;;13.65;73.30
16525;BME280;8375;33.594;-117.718;2023-04-15T04:13:35;100338.03;;;13.66;74.84
16525;BME280;8375;33.594;-117.718;2023-04-15T04:16:05;100341.63;;;13.65;76.17
16525;BME280;8375;33.594;-117.718;2023-04-15T04:18:35;100350.78;;;13.59;75.41
16525;BME280;8375;33.594;-117.718;2023-04-15T04:21:04;100347.22;;;13.51;75.07
16525;BME280;8375;33.594;-117.718;2023-04-15T04:23:32;100354.72;;;13.44;76.43
16525;BME280;8375;33.594;-117.718;2023-04-15T04:26:01;100360.19;;;13.41;76.77
16525;BME280;8375;33.594;-117.718;2023-04-15T04:28:30;100361.41;;;13.37;77.33
16525;BME280;8375;33.594;-117.718;2023-04-15T04:30:59;100362.94;;;13.39;79.18
16525;BME280;8375;33.594;-117.718;2023-04-15T04:33:28;100357.97;;;13.36;78.12
16525;BME280;8375;33.594;-117.718;2023-04-15T04:35:58;100361.13;;;13.30;79.55
16525;BME280;8375;33.594;-117.718;2023-04-15T04:38:27;100366.72;;;13.25;80.22
16525;BME280;8375;33.594;-117.718;2023-04-15T04:40:56;100361.19;;;13.18;81.24
16525;BME280;8375;33.594;-117.718;2023-04-15T04:43:25;100362.81;;;13.10;81.92
16525;BME280;8375;33.594;-117.718;2023-04-15T04:45:54;100376.34;;;13.03;81.49
16525;BME280;8375;33.594;-117.718;2023-04-15T04:48:23;100379.47;;;12.97;82.31
16525;BME280;8375;33.594;-117.718;2023-04-15T04:50:52;100374.09;;;12.89;82.67
16525;BME280;8375;33.594;-117.718;2023-04-15T04:53:23;100378.84;;;12.84;82.22
16525;BME280;8375;33.594;-117.718;2023-04-15T04:55:51;100379.47;;;12.76;82.70
16525;BME280;8375;33.594;-117.718;2023-04-15T04:58:20;100380.66;;;12.62;82.69
16525;BME280;8375;33.594;-117.718;2023-04-15T05:00:49;100387.88;;;12.58;83.67
16525;BME280;8375;33.594;-117.718;2023-04-15T05:03:17;100384.13;;;12.51;83.73
16525;BME280;8375;33.594;-117.718;2023-04-15T05:05:46;100389.56;;;12.48;83.83
16525;BME280;8375;33.594;-117.718;2023-04-15T05:08:15;100397.78;;;12.43;83.74
16525;BME280;8375;33.594;-117.718;2023-04-15T05:10:45;100404.94;;;12.30;84.06
16525;BME280;8375;33.594;-117.718;2023-04-15T05:13:14;100405.88;;;12.29;85.37
16525;BME280;8375;33.594;-117.718;2023-04-15T05:15:42;100410.94;;;12.30;85.68
16525;BME280;8375;33.594;-117.718;2023-04-15T05:18:11;100413.59;;;12.19;86.06
16525;BME280;8375;33.594;-117.718;2023-04-15T05:20:40;100410.53;;;12.14;85.97
16525;BME280;8375;33.594;-117.718;2023-04-15T05:23:08;100414.09;;;12.13;86.98
16525;BME280;8375;33.594;-117.718;2023-04-15T05:25:37;100412.56;;;12.10;87.52
16525;BME280;8375;33.594;-117.718;2023-04-15T05:28:08;100413.97;;;12.14;88.05
16525;BME280;8375;33.594;-117.718;2023-04-15T05:30:36;100419.06;;;12.05;87.67
16525;BME280;8375;33.594;-117.718;2023-04-15T05:33:05;100421.09;;;12.01;87.72
16525;BME280;8375;33.594;-117.718;2023-04-15T05:35:34;100425.56;;;11.99;87.60
16525;BME280;8375;33.594;-117.718;2023-04-15T05:38:03;100418.97;;;11.95;88.05
16525;BME280;8375;33.594;-117.718;2023-04-15T05:40:31;100418.50;;;11.89;87.97
16525;BME280;8375;33.594;-117.718;2023-04-15T05:43:00;100419.44;;;11.88;88.18
16525;BME280;8375;33.594;-117.718;2023-04-15T05:45:30;100413.88;;;11.82;87.35
16525;BME280;8375;33.594;-117.718;2023-04-15T05:47:59;100416.72;;;11.79;87.18
16525;BME280;8375;33.594;-117.718;2023-04-15T05:50:28;100414.25;;;11.77;87.80
16525;BME280;8375;33.594;-117.718;2023-04-15T05:52:56;100411.19;;;11.72;87.55
16525;BME280;8375;33.594;-117.718;2023-04-15T05:55:25;100409.09;;;11.66;87.58
16525;BME280;8375;33.594;-117.718;2023-04-15T05:57:54;100411.06;;;11.62;88.70
16525;BME280;8375;33.594;-117.718;2023-04-15T06:00:22;100410.59;;;11.57;88.53
16525;BME280;8375;33.594;-117.718;2023-04-15T06:02:53;100419.97;;;11.48;88.53
16525;BME280;8375;33.594;-117.718;2023-04-15T06:05:21;100414.88;;;11.47;89.26
16525;BME280;8375;33.594;-117.718;2023-04-15T06:07:50;100415.34;;;11.52;90.63
16525;BME280;8375;33.594;-117.718;2023-04-15T06:10:19;100423.59;;;11.45;89.62
16525;BME280;8375;33.594;-117.718;2023-04-15T06:12:47;100431.06;;;11.50;91.41
16525;BME280;8375;33.594;-117.718;2023-04-15T06:15:16;100432.50;;;11.54;91.89
16525;BME280;8375;33.594;-117.718;2023-04-15T06:17:45;100433.19;;;11.45;90.93
16525;BME280;8375;33.594;-117.718;2023-04-15T06:20:15;100423.84;;;11.42;91.04
16525;BME280;8375;33.594;-117.718;2023-04-15T06:22:44;100427.88;;;11.35;90.14
16525;BME280;8375;33.594;-117.718;2023-04-15T06:25:13;100428.47;;;11.27;90.05
16525;BME280;8375;33.594;-117.718;2023-04-15T06:27:42;100420.66;;;11.16;89.86
16525;BME280;8375;33.594;-117.718;2023-04-15T06:30:11;100436.00;;;11.08;89.97
16525;BME280;8375;33.594;-117.718;2023-04-15T06:32:40;100443.31;;;11.03;90.94
16525;BME280;8375;33.594;-117.718;2023-04-15T06:35:09;100444.25;;;11.02;91.93
16525;BME280;8375;33.594;-117.718;2023-04-15T06:37:39;100443.63;;;10.98;91.97
16525;BME280;8375;33.594;-117.718;2023-04-15T06:40:09;100441.41;;;10.93;92.44
16525;BME280;8375;33.594;-117.718;2023-04-15T06:42:37;100442.13;;;10.95;93.32
16525;BME280;8375;33.594;-117.718;2023-04-15T06:45:08;100445.28;;;10.88;93.26
16525;BME280;8375;33.594;-117.718;2023-04-15T06:47:37;100453.06;;;10.88;93.72
16525;BME280;8375;33.594;-117.718;2023-04-15T06:50:06;100452.50;;;10.95;95.20
16525;BME280;8375;33.594;-117.718;2023-04-15T06:52:36;100440.78;;;10.90;94.57
16525;BME280;8375;33.594;-117.718;2023-04-15T06:55:07;100451.75;;;10.82;93.41
16525;BME280;8375;33.594;-117.718;2023-04-15T06:57:36;100449.38;;;10.79;93.97
16525;BME280;8375;33.594;-117.718;2023-04-15T07:00:05;100451.50;;;10.74;93.95
16525;BME280;8375;33.594;-117.718;2023-04-15T07:02:36;100457.72;;;10.71;94.50
16525;BME280;8375;33.594;-117.718;2023-04-15T07:05:06;100459.34;;;10.61;94.52
16525;BME280;8375;33.594;-117.718;2023-04-15T07:07:35;100460.38;;;10.58;94.17
16525;BME280;8375;33.594;-117.718;2023-04-15T07:10:06;100462.59;;;10.51;93.92
16525;BME280;8375;33.594;-117.718;2023-04-15T07:12:35;100467.31;;;10.46;94.31
16525;BME280;8375;33.594;-117.718;2023-04-15T07:15:05;100459.13;;;10.39;95.06
16525;BME280;8375;33.594;-117.718;2023-04-15T07:17:33;100462.56;;;10.40;95.26
16525;BME280;8375;33.594;-117.718;2023-04-15T07:20:02;100459.22;;;10.38;95.71
16525;BME280;8375;33.594;-117.718;2023-04-15T07:22:31;100466.16;;;10.37;95.82
16525;BME280;8375;33.594;-117.718;2023-04-15T07:25:00;100463.06;;;10.45;97.93
16525;BME280;8375;33.594;-117.718;2023-04-15T07:27:30;100475.81;;;10.48;98.48
16525;BME280;8375;33.594;-117.718;2023-04-15T07:29:59;100476.25;;;10.42;97.48
16525;BME280;8375;33.594;-117.718;2023-04-15T07:32:28;100477.59;;;10.35;96.38
16525;BME280;8375;33.594;-117.718;2023-04-15T07:34:56;100477.41;;;10.25;96.67
16525;BME280;8375;33.594;-117.718;2023-04-15T07:37:25;100482.81;;;10.22;97.16
16525;BME280;8375;33.594;-117.718;2023-04-15T07:39:54;100488.94;;;10.21;97.60
16525;BME280;8375;33.594;-117.718;2023-04-15T07:42:22;100488.22;;;10.19;98.42
16525;BME280;8375;33.594;-117.718;2023-04-15T07:44:53;100492.16;;;10.24;100.00
16525;BME280;8375;33.594;-117.718;2023-04-15T07:47:22;100495.34;;;10.28;100.00
16525;BME280;8375;33.594;-117.718;2023-04-15T07:49:50;100490.06;;;10.30;100.00
16525;BME280;8375;33.594;-117.718;2023-04-15T07:52:19;100494.53;;;10.27;100.00
16525;BME280;8375;33.594;-117.718;2023-04-15T07:54:48;100484.91;;;10.17;99.54
16525;BME280;8375;33.594;-117.718;2023-04-15T07:57:16;100485.25;;;10.12;99.38
16525;BME280;8375;33.594;-117.718;2023-04-15T07:59:45;100487.44;;;10.05;99.66
16525;BME280;8375;33.594;-117.718;2023-04-15T08:02:15;100487.34;;;10.07;100.00
16525;BME280;8375;33.594;-117.718;2023-04-15T08:04:44;100491.81;;;10.05;100.00
16525;BME280;8375;33.594;-117.718;2023-04-15T08:07:13;100487.84;;;9.99;99.73
16525;BME280;8375;33.594;-117.718;2023-04-15T08:09:41;100487.84;;;9.99;99.64
16525;BME280;8375;33.594;-117.718;2023-04-15T08:12:10;100478.63;;;9.95;99.61
16525;BME280;8375;33.594;-117.718;2023-04-15T08:14:40;100477.19;;;9.91;99.81
16525;BME280;8375;33.594;-117.718;2023-04-15T08:17:09;100479.91;;;9.89;99.94
16525;BME280;8375;33.594;-117.718;2023-04-15T08:19:39;100476.88;;;9.82;99.93
16525;BME280;8375;33.594;-117.718;2023-04-15T08:22:08;100488.41;;;9.78;99.98
16525;BME280;8375;33.594;-117.718;2023-04-15T08:24:37;100484.28;;;9.76;99.87
16525;BME280;8375;33.594;-117.718;2023-04-15T08:27:06;100487.91;;;9.73;100.00
16525;BME280;8375;33.594;-117.718;2023-04-15T08:29:34;100483.00;;;9.81;100.00
16525;BME280;8375;33.594;-117.718;2023-04-15T08:32:03;100481.47;;;9.79;100.00
16525;BME280;8375;33.594;-117.718;2023-04-15T08:34:32;100476.09;;;9.69;100.00
16525;BME280;8375;33.594;-117.718;2023-04-15T08:37:02;100476.09;;;9.69;100.00
16525;BME280;8375;33.594;-117.718;2023-04-15T08:39:32;100476.28;;;9.66;100.00
16525;BME280;8375;33.594;-117.718;2023-04-15T08:42:01;100480.53;;;9.67;100.00
16525;BME280;8375;33.594;-117.718;2023-04-15T08:44:33;100476.84;;;9.58;100.00
16525;BME280;8375;33.594;-117.718;2023-04-15T08:47:03;100473.09;;;9.49;100.00
16525;BME280;8375;33.594;-117.718;2023-04-15T08:49:37;100480.25;;;9.46;100.00
16525;BME280;8375;33.594;-117.718;2023-04-15T08:52:08;100472.91;;;9.39;100.00
16525;BME280;8375;33.594;-117.718;2023-04-15T08:54:37;100477.25;;;9.39;100.00
16525;BME280;8375;33.594;-117.718;2023-04-15T08:57:07;100469.59;;;9.37;100.00
16525;BME280;8375;33.594;-117.718;2023-04-15T08:59:36;100463.56;;;9.37;100.00
16525;BME280;8375;33.594;-117.718;2023-04-15T09:02:05;100467.72;;;9.39;100.00
16525;BME280;8375;33.594;-117.718;2023-04-15T09:04:34;100471.84;;;9.42;100.00
16525;BME280;8375;33.594;-117.718;2023-04-15T09:07:03;100475.56;;;9.38;100.00
16525;BME280;8375;33.594;-117.718;2023-04-15T09:09:33;100473.00;;;9.38;100.00
16525;BME280;8375;33.594;-117.718;2023-04-15T09:12:03;100473.59;;;9.29;100.00
16525;BME280;8375;33.594;-117.718;2023-04-15T09:14:31;100477.13;;;9.28;100.00
16525;BME280;8375;33.594;-117.718;2023-04-15T09:17:01;100477.34;;;9.24;100.00
16525;BME280;8375;33.594;-117.718;2023-04-15T09:19:30;100473.94;;;9.24;100.00
16525;BME280;8375;33.594;-117.718;2023-04-15T09:22:01;100471.34;;;9.24;100.00
16525;BME280;8375;33.594;-117.718;2023-04-15T09:24:39;100476.72;;;9.21;100.00
16525;BME280;8375;33.594;-117.718;2023-04-15T09:27:08;100477.00;;;9.16;100.00
16525;BME280;8375;33.594;-117.718;2023-04-15T09:29:38;100473.81;;;9.13;100.00
16525;BME280;8375;33.594;-117.718;2023-04-15T09:32:12;100473.91;;;9.11;100.00
16525;BME280;8375;33.594;-117.718;2023-04-15T09:34:41;100472.34;;;9.08;100.00
16525;BME280;8375;33.594;-117.718;2023-04-15T09:37:10;100470.06;;;9.04;100.00
16525;BME280;8375;33.594;-117.718;2023-04-15T09:39:47;100466.94;;;8.99;100.00
16525;BME280;8375;33.594;-117.718;2023-04-15T09:42:17;100465.41;;;8.96;100.00
16525;BME280;8375;33.594;-117.718;2023-04-15T09:44:49;100465.50;;;8.94;100.00
16525;BME280;8375;33.594;-117.718;2023-04-15T09:47:36;100464.88;;;8.91;100.00
16525;BME280;8375;33.594;-117.718;2023-04-15T09:50:05;100466.53;;;8.92;100.00
16525;BME280;8375;33.594;-117.718;2023-04-15T09:52:41;100469.94;;;8.92;100.00
16525;BME280;8375;33.594;-117.718;2023-04-15T09:55:12;100461.56;;;8.89;100.00
16525;BME280;8375;33.594;-117.718;2023-04-15T09:57:41;100456.66;;;8.84;100.00
16525;BME280;8375;33.594;-117.718;2023-04-15T10:00:10;100457.72;;;8.94;100.00
16525;BME280;8375;33.594;-117.718;2023-04-15T10:02:39;100461.03;;;8.97;100.00
16525;BME280;8375;33.594;-117.718;2023-04-15T10:05:10;100459.38;;;8.95;100.00
16525;BME280;8375;33.594;-117.718;2023-04-15T10:07:41;100452.66;;;8.93;100.00
16525;BME280;8375;33.594;-117.718;2023-04-15T10:10:12;100463.31;;;8.88;100.00
16525;BME280;8375;33.594;-117.718;2023-04-15T10:12:42;100458.31;;;8.85;100.00
16525;BME280;8375;33.594;-117.718;2023-04-15T10:15:14;100452.72;;;8.78;100.00
16525;BME280;8375;33.594;-117.718;2023-04-15T10:17:44;100459.84;;;8.75;100.00
16525;BME280;8375;33.594;-117.718;2023-04-15T10:20:14;100462.56;;;8.73;100.00
16525;BME280;8375;33.594;-117.718;2023-04-15T10:22:44;100460.16;;;8.70;100.00
16525;BME280;8375;33.594;-117.718;2023-04-15T10:25:16;100455.72;;;8.72;100.00
16525;BME280;8375;33.594;-117.718;2023-04-15T10:27:46;100458.59;;;8.68;100.00
16525;BME280;8375;33.594;-117.718;2023-04-15T10:30:18;100459.53;;;8.66;100.00
16525;BME280;8375;33.594;-117.718;2023-04-15T10:32:46;100455.78;;;8.58;100.00
16525;BME280;8375;33.594;-117.718;2023-04-15T10:35:16;100455.13;;;8.54;100.00
16525;BME280;8375;33.594;-117.718;2023-04-15T10:37:46;100464.75;;;8.52;100.00
16525;BME280;8375;33.594;-117.718;2023-04-15T10:40:26;100461.34;;;8.51;100.00
16525;BME280;8375;33.594;-117.718;2023-04-15T10:42:58;100458.84;;;8.50;100.00
16525;BME280;8375;33.594;-117.718;2023-04-15T10:45:30;100460.78;;;8.46;100.00
16525;BME280;8375;33.594;-117.718;2023-04-15T10:48:01;100461.72;;;8.45;100.00
16525;BME280;8375;33.594;-117.718;2023-04-15T10:50:31;100469.38;;;8.47;100.00
16525;BME280;8375;33.594;-117.718;2023-04-15T10:53:02;100470.41;;;8.44;100.00
16525;BME280;8375;33.594;-117.718;2023-04-15T10:55:34;100462.72;;;8.43;100.00
16525;BME280;8375;33.594;-117.718;2023-04-15T10:58:02;100471.41;;;8.42;100.00
16525;BME280;8375;33.594;-117.718;2023-04-15T11:00:32;100463.56;;;8.43;100.00
16525;BME280;8375;33.594;-117.718;2023-04-15T11:03:05;100466.44;;;8.39;100.00
16525;BME280;8375;33.594;-117.718;2023-04-15T11:05:51;100473.47;;;8.36;100.00
16525;BME280;8375;33.594;-117.718;2023-04-15T11:08:21;100480.69;;;8.31;100.00
16525;BME280;8375;33.594;-117.718;2023-04-15T11:11:10;100480.06;;;8.28;100.00
16525;BME280;8375;33.594;-117.718;2023-04-15T11:13:47;100488.09;;;8.23;100.00
16525;BME280;8375;33.594;-117.718;2023-04-15T11:16:16;100496.59;;;8.25;100.00
16525;BME280;8375;33.594;-117.718;2023-04-15T11:18:54;100494.66;;;8.29;100.00
16525;BME280;8375;33.594;-117.718;2023-04-15T11:21:24;100494.53;;;8.30;100.00
16525;BME280;8375;33.594;-117.718;2023-04-15T11:23:53;100498.63;;;8.20;100.00
16525;BME280;8375;33.594;-117.718;2023-04-15T11:26:25;100499.94;;;8.13;100.00
16525;BME280;8375;33.594;-117.718;2023-04-15T11:28:54;100498.38;;;8.10;100.00
16525;BME280;8375;33.594;-117.718;2023-04-15T11:31:26;100503.75;;;8.07;100.00
16525;BME280;8375;33.594;-117.718;2023-04-15T11:33:56;100509.19;;;8.02;100.00
16525;BME280;8375;33.594;-117.718;2023-04-15T11:36:25;100505.66;;;8.03;100.00
16525;BME280;8375;33.594;-117.718;2023-04-15T11:38:56;100516.56;;;8.08;100.00
16525;BME280;8375;33.594;-117.718;2023-04-15T11:41:26;100517.75;;;8.17;100.00
16525;BME280;8375;33.594;-117.718;2023-04-15T11:43:55;100526.72;;;8.12;100.00
16525;BME280;8375;33.594;-117.718;2023-04-15T11:46:28;100527.28;;;8.02;100.00
16525;BME280;8375;33.594;-117.718;2023-04-15T11:48:57;100532.00;;;7.96;100.00
16525;BME280;8375;33.594;-117.718;2023-04-15T11:51:31;100526.38;;;7.89;100.00
16525;BME280;8375;33.594;-117.718;2023-04-15T11:54:00;100529.88;;;7.88;100.00
16525;BME280;8375;33.594;-117.718;2023-04-15T11:56:30;100531.72;;;7.86;100.00
16525;BME280;8375;33.594;-117.718;2023-04-15T11:58:59;100527.53;;;7.83;100.00
16525;BME280;8375;33.594;-117.718;2023-04-15T12:01:32;100530.06;;;7.85;100.00
16525;BME280;8375;33.594;-117.718;2023-04-15T12:04:01;100521.75;;;7.80;100.00
16525;BME280;8375;33.594;-117.718;2023-04-15T12:06:32;100518.97;;;7.83;100.00
16525;BME280;8375;33.594;-117.718;2023-04-15T12:09:09;100520.91;;;7.79;100.00
16525;BME280;8375;33.594;-117.718;2023-04-15T12:11:42;100532.09;;;7.80;100.00
16525;BME280;8375;33.594;-117.718;2023-04-15T12:14:15;100536.97;;;7.84;100.00
16525;BME280;8375;33.594;-117.718;2023-04-15T12:16:45;100530.97;;;7.84;100.00
16525;BME280;8375;33.594;-117.718;2023-04-15T12:19:18;100536.22;;;7.82;100.00
16525;BME280;8375;33.594;-117.718;2023-04-15T12:21:48;100534.66;;;7.80;100.00
16525;BME280;8375;33.594;-117.718;2023-04-15T12:24:19;100534.84;;;7.76;100.00
16525;BME280;8375;33.594;-117.718;2023-04-15T12:26:52;100532.63;;;7.70;100.00
16525;BME280;8375;33.594;-117.718;2023-04-15T12:29:25;100536.13;;;7.69;100.00
16525;BME280;8375;33.594;-117.718;2023-04-15T12:31:56;100530.22;;;7.67;100.00
16525;BME280;8375;33.594;-117.718;2023-04-15T12:34:29;100533.06;;;7.62;100.00
16525;BME280;8375;33.594;-117.718;2023-04-15T12:36:59;100528.94;;;7.60;100.00
16525;BME280;8375;33.594;-117.718;2023-04-15T12:39:29;100532.50;;;7.57;100.00
16525;BME280;8375;33.594;-117.718;2023-04-15T12:41:59;100533.06;;;7.62;100.00
16525;BME280;8375;33.594;-117.718;2023-04-15T12:44:28;100533.00;;;7.64;100.00